createdAt,value
2018-10-16T00:01:51.060Z,101545.47
2018-10-16T00:04:27.758Z,101556.53
2018-10-16T00:07:03.517Z,101557.00
2018-10-16T00:09:39.732Z,101549.63
2018-10-16T00:12:15.925Z,101551.97
2018-10-16T00:14:52.166Z,101553.16
2018-10-16T00:17:28.281Z,101559.56
2018-10-16T00:20:04.108Z,101560.56
2018-10-16T00:22:40.292Z,101557.56
2018-10-16T00:25:19.938Z,101562.75
2018-10-16T00:27:56.103Z,101558.22
2018-10-16T00:30:32.087Z,101565.44
2018-10-16T00:33:08.324Z,101573.81
2018-10-16T00:35:44.107Z,101574.66
2018-10-16T00:38:20.548Z,101573.16
2018-10-16T00:40:56.870Z,101565.63
2018-10-16T00:43:32.863Z,101577.19
2018-10-16T00:46:09.296Z,101574.34
2018-10-16T00:48:45.284Z,101574.03
2018-10-16T00:51:21.128Z,101575.68
2018-10-16T00:53:56.896Z,101576.37
2018-10-16T00:56:32.520Z,101577.05
2018-10-16T00:59:08.361Z,101578.93
2018-10-16T01:04:10.241Z,101578.23
2018-10-16T01:06:45.932Z,101583.95
2018-10-16T01:09:22.999Z,101580.42
2018-10-16T01:12:00.096Z,101582.61
2018-10-16T01:14:36.121Z,101583.45
2018-10-16T01:17:14.247Z,101586.98
2018-10-16T01:19:55.386Z,101589.67
2018-10-16T01:22:31.988Z,101588.83
2018-10-16T01:25:10.311Z,101583.77
2018-10-16T01:27:47.898Z,101579.42
2018-10-16T01:30:24.692Z,101584.96
2018-10-16T01:33:01.138Z,101585.45
2018-10-16T01:35:37.659Z,101587.30
2018-10-16T01:38:14.025Z,101584.62
2018-10-16T01:40:50.131Z,101589.67
2018-10-16T01:43:26.038Z,101593.86
2018-10-16T01:46:02.333Z,101592.70
2018-10-16T01:48:38.898Z,101591.55
2018-10-16T01:51:15.584Z,101592.89
2018-10-16T01:53:51.925Z,101597.91
2018-10-16T01:56:27.907Z,101595.23
2018-10-16T01:59:03.917Z,101597.75
2018-10-16T02:01:40.137Z,101602.63
2018-10-16T02:04:16.611Z,101608.66
2018-10-16T02:06:52.844Z,101610.16
2018-10-16T02:09:29.963Z,101608.33
2018-10-16T02:12:06.139Z,101612.17
2018-10-16T02:17:22.317Z,101615.67
2018-10-16T02:19:58.349Z,101614.33
2018-10-16T02:22:34.323Z,101619.86
2018-10-16T02:25:12.509Z,101626.58
2018-10-16T02:27:51.856Z,101620.86
2018-10-16T02:30:27.787Z,101628.61
2018-10-16T02:33:04.027Z,101626.73
2018-10-16T02:35:40.913Z,101626.73
2018-10-16T02:38:17.379Z,101631.80
2018-10-16T02:40:53.326Z,101630.64
2018-10-16T02:43:29.435Z,101629.30
2018-10-16T02:46:05.430Z,101634.67
2018-10-16T02:48:42.115Z,101635.98
2018-10-16T02:51:18.534Z,101636.30
2018-10-16T02:53:55.057Z,101637.83
2018-10-16T02:56:31.168Z,101639.67
2018-10-16T02:59:07.164Z,101643.55
2018-10-16T03:01:44.008Z,101644.89
2018-10-16T03:04:20.407Z,101646.89
2018-10-16T03:06:56.508Z,101646.08
2018-10-16T03:09:32.157Z,101644.88
2018-10-16T03:12:08.500Z,101653.47
2018-10-16T03:14:44.511Z,101656.31
2018-10-16T03:17:20.335Z,101657.00
2018-10-16T03:19:56.385Z,101658.69
2018-10-16T03:22:32.523Z,101654.66
2018-10-16T03:25:09.188Z,101661.88
2018-10-16T03:27:45.345Z,101664.74
2018-10-16T03:30:21.352Z,101659.02
2018-10-16T03:32:57.581Z,101669.95
2018-10-16T03:35:33.365Z,101667.11
2018-10-16T03:38:09.172Z,101665.78
2018-10-16T03:40:45.379Z,101675.68
2018-10-16T03:43:23.904Z,101674.17
2018-10-16T03:45:59.924Z,101673.02
2018-10-16T03:48:36.139Z,101676.70
2018-10-16T03:51:12.655Z,101675.88
2018-10-16T03:53:49.125Z,101683.94
2018-10-16T03:56:25.177Z,101684.59
2018-10-16T03:59:02.627Z,101685.61
2018-10-16T04:01:38.605Z,101686.30
2018-10-16T04:04:14.949Z,101690.66
2018-10-16T04:06:51.436Z,101693.52
2018-10-16T04:09:27.971Z,101690.01
2018-10-16T04:12:04.203Z,101695.03
2018-10-16T04:14:40.366Z,101694.03
2018-10-16T04:17:16.382Z,101695.88
2018-10-16T04:19:52.405Z,101696.72
2018-10-16T04:22:28.680Z,101695.88
2018-10-16T04:25:05.201Z,101697.36
2018-10-16T04:27:41.189Z,101699.70
2018-10-16T04:30:17.211Z,101702.57
2018-10-16T04:32:53.235Z,101705.60
2018-10-16T04:35:29.195Z,101707.94
2018-10-16T04:38:05.198Z,101708.44
2018-10-16T04:40:42.359Z,101703.41
2018-10-16T04:43:18.091Z,101707.94
2018-10-16T04:45:54.197Z,101713.80
2018-10-16T04:48:30.168Z,101710.27
2018-10-16T04:51:06.156Z,101714.48
2018-10-16T04:53:42.374Z,101707.11
2018-10-16T04:56:18.432Z,101707.11
2018-10-16T04:58:55.337Z,101710.47
2018-10-16T05:01:32.614Z,101712.30
2018-10-16T05:04:08.897Z,101711.46
2018-10-16T05:06:45.206Z,101707.30
2018-10-16T05:09:22.291Z,101709.14
2018-10-16T05:11:58.804Z,101712.81
2018-10-16T05:14:35.203Z,101716.84
2018-10-16T05:17:11.083Z,101716.52
2018-10-16T05:19:47.213Z,101713.00
2018-10-16T05:22:23.593Z,101715.83
2018-10-16T05:24:59.929Z,101718.88
2018-10-16T05:27:36.152Z,101718.88
2018-10-16T05:30:39.586Z,101725.57
2018-10-16T05:33:15.384Z,101717.19
2018-10-16T05:35:51.389Z,101718.88
2018-10-16T05:38:28.389Z,101716.20
2018-10-16T05:41:04.911Z,101717.55
2018-10-16T05:43:40.900Z,101722.73
2018-10-16T05:46:17.214Z,101720.20
2018-10-16T05:48:53.054Z,101714.83
2018-10-16T05:51:29.217Z,101722.22
2018-10-16T05:54:05.052Z,101721.55
2018-10-16T05:56:41.039Z,101728.26
2018-10-16T05:59:17.201Z,101726.75
2018-10-16T06:01:53.225Z,101724.56
2018-10-16T06:04:29.087Z,101726.08
2018-10-16T06:07:05.028Z,101727.11
2018-10-16T06:09:41.917Z,101722.23
2018-10-16T06:12:18.244Z,101723.75
2018-10-16T06:14:54.418Z,101720.89
2018-10-16T06:17:30.665Z,101728.28
2018-10-16T06:20:06.582Z,101724.58
2018-10-16T06:22:43.402Z,101726.91
2018-10-16T06:25:19.230Z,101729.73
2018-10-16T06:27:55.218Z,101729.55
2018-10-16T06:30:31.239Z,101725.71
2018-10-16T06:33:07.613Z,101711.95
2018-10-16T06:35:43.852Z,101715.83
2018-10-16T06:38:20.266Z,101714.14
2018-10-16T06:40:56.368Z,101711.45
2018-10-16T06:43:32.358Z,101712.80
2018-10-16T06:46:08.409Z,101711.28
2018-10-16T06:48:44.494Z,101711.09
2018-10-16T06:51:20.405Z,101707.75
2018-10-16T06:53:56.240Z,101709.09
2018-10-16T06:56:32.240Z,101711.09
2018-10-16T06:59:08.593Z,101706.58
2018-10-16T07:01:44.578Z,101709.62
2018-10-16T07:04:20.865Z,101701.08
2018-10-16T07:06:56.663Z,101702.41
2018-10-16T07:09:33.597Z,101700.23
2018-10-16T07:12:10.370Z,101695.36
2018-10-16T07:14:46.997Z,101701.22
2018-10-16T07:17:22.884Z,101695.00
2018-10-16T07:19:59.735Z,101694.69
2018-10-16T07:24:12.054Z,101689.82
2018-10-16T07:26:48.710Z,101689.33
2018-10-16T07:29:24.410Z,101686.15
2018-10-16T07:31:59.948Z,101691.66
2018-10-16T07:34:36.161Z,101682.77
2018-10-16T07:37:12.619Z,101680.26
2018-10-16T07:39:48.244Z,101678.59
2018-10-16T07:42:24.058Z,101673.87
2018-10-16T07:45:00.078Z,101671.37
2018-10-16T07:47:36.459Z,101674.23
2018-10-16T07:50:14.864Z,101669.53
2018-10-16T07:52:51.014Z,101672.89
2018-10-16T07:55:27.288Z,101665.34
2018-10-16T07:58:03.599Z,101664.49
2018-10-16T08:00:39.894Z,101663.33
2018-10-16T08:03:16.099Z,101661.63
2018-10-16T08:05:52.010Z,101665.34
2018-10-16T08:08:28.053Z,101667.84
2018-10-16T08:11:04.247Z,101663.64
2018-10-16T08:13:40.276Z,101665.48
2018-10-16T08:16:16.246Z,101665.48
2018-10-16T08:18:52.437Z,101659.45
2018-10-16T08:21:28.245Z,101666.67
2018-10-16T08:24:04.645Z,101667.17
2018-10-16T08:26:40.634Z,101661.81
2018-10-16T08:29:16.918Z,101662.30
2018-10-16T08:31:53.383Z,101658.11
2018-10-16T08:34:29.254Z,101654.09
2018-10-16T08:37:05.241Z,101653.23
2018-10-16T08:39:45.262Z,101649.08
2018-10-16T08:42:39.965Z,101652.74
2018-10-16T08:45:29.827Z,101652.39
2018-10-16T08:48:19.919Z,101653.91
2018-10-16T08:51:09.691Z,101651.05
2018-10-16T08:53:46.091Z,101646.71
2018-10-16T08:56:55.933Z,101650.37
2018-10-16T08:59:32.625Z,101650.03
2018-10-16T09:02:08.312Z,101654.58
2018-10-16T09:04:44.096Z,101647.17
2018-10-16T09:07:20.107Z,101649.84
2018-10-16T09:09:56.457Z,101652.67
2018-10-16T09:12:32.462Z,101652.49
2018-10-16T09:15:09.034Z,101655.17
2018-10-16T09:17:45.286Z,101654.67
2018-10-16T09:20:21.461Z,101646.95
2018-10-16T09:22:57.464Z,101658.34
2018-10-16T09:25:33.476Z,101658.02
2018-10-16T09:28:09.656Z,101652.97
2018-10-16T09:30:46.109Z,101655.47
2018-10-16T09:33:22.290Z,101662.17
2018-10-16T09:35:58.485Z,101660.02
2018-10-16T09:38:34.629Z,101658.33
2018-10-16T09:41:10.925Z,101661.17
2018-10-16T09:43:46.905Z,101660.64
2018-10-16T09:46:22.906Z,101657.64
2018-10-16T09:48:58.929Z,101649.75
2018-10-16T09:51:35.145Z,101651.75
2018-10-16T09:54:11.300Z,101647.91
2018-10-16T09:56:47.305Z,101652.91
2018-10-16T09:59:23.006Z,101655.77
2018-10-16T10:01:59.361Z,101660.27
2018-10-16T10:04:35.305Z,101660.45
2018-10-16T10:07:11.789Z,101665.31
2018-10-16T10:09:48.117Z,101660.75
2018-10-16T10:12:24.270Z,101657.75
2018-10-16T10:15:00.271Z,101656.59
2018-10-16T10:17:36.254Z,101658.91
2018-10-16T10:20:12.653Z,101655.91
2018-10-16T10:22:48.645Z,101659.94
2018-10-16T10:25:24.606Z,101654.04
2018-10-16T10:28:01.277Z,101654.20
2018-10-16T10:30:37.205Z,101652.87
2018-10-16T10:33:13.310Z,101652.69
2018-10-16T10:35:49.309Z,101655.01
2018-10-16T10:38:25.514Z,101657.02
2018-10-16T10:41:01.216Z,101653.66
2018-10-16T10:43:37.525Z,101648.44
2018-10-16T10:46:13.313Z,101649.29
2018-10-16T10:48:49.550Z,101649.11
2018-10-16T10:51:26.432Z,101649.28
2018-10-16T10:54:02.315Z,101648.56
2018-10-16T10:56:38.320Z,101649.58
2018-10-16T10:59:14.295Z,101660.60
2018-10-16T11:01:50.516Z,101657.73
2018-10-16T11:04:26.506Z,101664.95
2018-10-16T11:07:03.673Z,101663.92
2018-10-16T11:09:40.075Z,101667.08
2018-10-16T11:12:16.102Z,101663.55
2018-10-16T11:14:52.513Z,101662.08
2018-10-16T11:17:28.312Z,101663.06
2018-10-16T11:20:04.318Z,101657.52
2018-10-16T11:22:40.516Z,101657.69
2018-10-16T11:25:16.322Z,101654.52
2018-10-16T11:27:52.503Z,101653.32
2018-10-16T11:30:28.320Z,101655.31
2018-10-16T11:33:04.366Z,101651.11
2018-10-16T11:35:41.515Z,101648.96
2018-10-16T11:38:17.513Z,101648.96
2018-10-16T11:40:53.512Z,101653.28
2018-10-16T11:43:29.611Z,101651.27
2018-10-16T11:46:05.310Z,101654.27
2018-10-16T11:48:41.164Z,101648.76
2018-10-16T11:51:17.338Z,101650.23
2018-10-16T11:53:53.134Z,101646.39
2018-10-16T11:56:28.964Z,101651.91
2018-10-16T11:59:04.964Z,101648.20
2018-10-16T12:01:40.564Z,101649.70
2018-10-16T12:04:16.326Z,101647.16
2018-10-16T12:06:52.568Z,101654.86
2018-10-16T12:09:28.525Z,101651.02
2018-10-16T12:12:04.727Z,101655.52
2018-10-16T12:14:40.532Z,101657.52
2018-10-16T12:17:20.906Z,101648.81
2018-10-16T12:21:03.012Z,101651.98
2018-10-16T12:23:39.167Z,101640.08
2018-10-16T12:26:15.528Z,101650.04
2018-10-16T12:28:51.583Z,101648.87
2018-10-16T12:31:27.707Z,101646.19
2018-10-16T12:34:03.970Z,101641.33
2018-10-16T12:36:40.033Z,101630.31
2018-10-16T12:39:16.388Z,101631.65
2018-10-16T12:41:52.506Z,101631.78
2018-10-16T12:44:28.353Z,101633.64
2018-10-16T12:47:04.602Z,101640.46
2018-10-16T12:49:40.548Z,101643.80
2018-10-16T12:52:16.530Z,101650.64
2018-10-16T12:54:52.364Z,101652.64
2018-10-16T12:57:28.699Z,101646.09
2018-10-16T13:00:05.227Z,101647.59
2018-10-16T13:02:41.032Z,101647.89
2018-10-16T13:05:17.239Z,101648.90
2018-10-16T13:07:53.186Z,101647.73
2018-10-16T13:10:29.425Z,101652.88
2018-10-16T13:13:05.370Z,101654.71
2018-10-16T13:15:41.569Z,101657.55
2018-10-16T13:18:17.539Z,101653.54
2018-10-16T13:20:53.367Z,101661.56
2018-10-16T13:23:29.594Z,101654.69
2018-10-16T13:26:06.117Z,101655.53
2018-10-16T13:28:42.324Z,101648.48
2018-10-16T13:31:18.556Z,101660.16
2018-10-16T13:33:54.632Z,101663.19
2018-10-16T13:36:30.608Z,101654.81
2018-10-16T13:39:07.352Z,101654.00
2018-10-16T13:41:43.557Z,101657.33
2018-10-16T13:44:19.353Z,101654.46
2018-10-16T13:46:55.344Z,101657.63
2018-10-16T13:49:31.352Z,101658.27
2018-10-16T13:52:07.405Z,101658.44
2018-10-16T13:54:43.604Z,101665.61
2018-10-16T13:57:19.387Z,101667.60
2018-10-16T13:59:55.719Z,101665.06
2018-10-16T14:02:31.841Z,101659.69
2018-10-16T14:05:08.213Z,101664.37
2018-10-16T14:07:44.573Z,101658.70
2018-10-16T14:10:20.581Z,101657.83
2018-10-16T14:12:58.068Z,101663.33
2018-10-16T14:15:34.245Z,101665.84
2018-10-16T14:18:10.384Z,101666.17
2018-10-16T14:20:46.397Z,101669.39
2018-10-16T14:23:22.596Z,101667.41
2018-10-16T14:25:58.628Z,101670.08
2018-10-16T14:28:34.163Z,101668.74
2018-10-16T14:31:10.237Z,101668.94
2018-10-16T14:33:46.491Z,101665.77
2018-10-16T14:36:23.384Z,101669.13
2018-10-16T14:38:59.392Z,101669.95
2018-10-16T14:41:35.569Z,101676.83
2018-10-16T14:44:11.951Z,101678.03
2018-10-16T14:46:48.069Z,101685.04
2018-10-16T14:49:24.342Z,101682.04
2018-10-16T14:52:00.638Z,101689.41
2018-10-16T14:54:36.582Z,101691.72
2018-10-16T14:57:12.589Z,101696.91
2018-10-16T14:59:48.784Z,101698.44
2018-10-16T15:02:25.727Z,101693.94
2018-10-16T15:05:02.819Z,101695.64
2018-10-16T15:07:39.179Z,101688.95
2018-10-16T15:10:15.610Z,101691.95
2018-10-16T15:12:51.281Z,101691.79
2018-10-16T15:15:27.189Z,101689.11
2018-10-16T15:18:03.175Z,101692.31
2018-10-16T15:20:39.604Z,101700.17
2018-10-16T15:23:15.620Z,101701.99
2018-10-16T15:25:51.588Z,101705.52
2018-10-16T15:28:27.615Z,101701.50
2018-10-16T15:31:03.525Z,101701.86
2018-10-16T15:33:39.586Z,101706.69
2018-10-16T15:36:15.693Z,101708.03
2018-10-16T15:38:51.758Z,101711.91
2018-10-16T15:41:27.626Z,101718.43
2018-10-16T15:44:03.632Z,101710.89
2018-10-16T15:46:41.161Z,101712.59
2018-10-16T15:49:17.691Z,101717.42
2018-10-16T15:51:54.377Z,101711.25
2018-10-16T15:54:30.252Z,101718.45
2018-10-16T15:57:06.545Z,101715.95
2018-10-16T15:59:42.418Z,101718.13
2018-10-16T16:02:18.403Z,101716.83
2018-10-16T16:04:54.442Z,101713.62
2018-10-16T16:07:30.437Z,101718.84
2018-10-16T16:10:06.812Z,101716.66
2018-10-16T16:12:43.492Z,101721.81
2018-10-16T16:15:20.027Z,101733.46
2018-10-16T16:17:56.293Z,101731.44
2018-10-16T16:20:32.614Z,101736.76
2018-10-16T16:23:08.641Z,101732.03
2018-10-16T16:25:45.244Z,101738.67
2018-10-16T16:28:21.600Z,101739.33
2018-10-16T16:30:57.545Z,101738.44
2018-10-16T16:33:33.603Z,101733.88
2018-10-16T16:36:09.857Z,101729.05
2018-10-16T16:38:46.275Z,101731.85
2018-10-16T16:41:22.428Z,101734.84
2018-10-16T16:43:58.965Z,101737.61
2018-10-16T16:46:35.412Z,101730.77
2018-10-16T16:49:11.450Z,101728.62
2018-10-16T16:51:47.459Z,101732.95
2018-10-16T16:54:23.921Z,101732.63
2018-10-16T16:56:59.909Z,101734.41
2018-10-16T16:59:36.219Z,101728.34
2018-10-16T17:02:12.397Z,101731.51
2018-10-16T17:04:48.768Z,101732.64
2018-10-16T17:07:25.194Z,101733.98
2018-10-16T17:10:01.503Z,101733.08
2018-10-16T17:12:38.444Z,101730.41
2018-10-16T17:15:17.368Z,101727.08
2018-10-16T17:17:53.484Z,101722.71
2018-10-16T17:20:29.443Z,101717.37
2018-10-16T17:23:06.663Z,101713.97
2018-10-16T17:25:43.041Z,101713.29
2018-10-16T17:28:19.174Z,101710.09
2018-10-16T17:30:55.445Z,101713.09
2018-10-16T17:33:31.448Z,101715.77
2018-10-16T17:36:07.444Z,101712.24
2018-10-16T17:38:43.469Z,101716.25
2018-10-16T17:41:19.434Z,101710.78
2018-10-16T17:44:53.346Z,101701.55
2018-10-16T17:47:30.167Z,101699.73
2018-10-16T17:50:06.403Z,101703.77
2018-10-16T17:52:42.814Z,101693.24
2018-10-16T17:55:19.321Z,101693.60
2018-10-16T17:57:55.718Z,101695.17
2018-10-16T18:00:32.680Z,101694.66
2018-10-16T18:03:09.238Z,101690.34
2018-10-16T18:05:45.845Z,101690.75
2018-10-16T18:08:22.325Z,101688.59
2018-10-16T18:10:58.857Z,101678.75
2018-10-16T18:13:34.644Z,101680.61
2018-10-16T18:16:11.112Z,101676.11
2018-10-16T18:18:47.291Z,101677.64
2018-10-16T18:21:23.423Z,101675.81
2018-10-16T18:25:49.459Z,101677.22
2018-10-16T18:28:25.024Z,101679.40
2018-10-16T18:31:00.473Z,101679.92
2018-10-16T18:33:36.439Z,101670.75
2018-10-16T18:36:12.686Z,101670.59
2018-10-16T18:38:48.421Z,101670.30
2018-10-16T18:41:24.186Z,101667.16
2018-10-16T18:44:00.434Z,101663.83
2018-10-16T18:46:36.309Z,101657.83
2018-10-16T18:49:12.696Z,101658.34
2018-10-16T18:51:48.651Z,101652.69
2018-10-16T18:54:24.524Z,101648.87
2018-10-16T18:57:00.425Z,101634.84
2018-10-16T18:59:36.288Z,101635.38
2018-10-16T19:02:12.485Z,101636.77
2018-10-16T19:04:48.306Z,101631.94
2018-10-16T19:07:24.825Z,101627.94
2018-10-16T19:10:00.934Z,101628.48
2018-10-16T19:12:37.613Z,101619.93
2018-10-16T19:15:16.530Z,101617.27
2018-10-16T19:17:53.042Z,101612.28
2018-10-16T19:20:28.853Z,101605.28
2018-10-16T19:23:05.114Z,101605.79
2018-10-16T19:25:41.130Z,101597.27
2018-10-16T19:28:17.127Z,101599.11
2018-10-16T19:30:53.476Z,101597.47
2018-10-16T19:33:29.654Z,101585.60
2018-10-16T19:36:05.962Z,101587.94
2018-10-16T19:38:42.435Z,101588.61
2018-10-16T19:41:18.819Z,101582.63
2018-10-16T19:43:54.972Z,101583.45
2018-10-16T19:46:31.472Z,101571.45
2018-10-16T19:49:08.661Z,101568.78
2018-10-16T19:51:45.255Z,101565.79
2018-10-16T19:54:21.488Z,101561.81
2018-10-16T19:56:57.683Z,101554.94
2018-10-16T19:59:34.068Z,101556.11
2018-10-16T20:02:11.321Z,101556.15
2018-10-16T20:04:47.788Z,101547.45
2018-10-16T20:07:23.764Z,101548.30
2018-10-16T20:09:59.789Z,101540.41
2018-10-16T20:12:36.204Z,101536.06
2018-10-16T20:15:14.478Z,101534.73
2018-10-16T20:17:50.673Z,101532.72
2018-10-16T20:20:27.933Z,101527.88
2018-10-16T20:23:04.493Z,101524.85
2018-10-16T20:25:41.156Z,101521.36
2018-10-16T20:28:17.135Z,101513.98
2018-10-16T20:30:53.325Z,101508.31
2018-10-16T20:33:29.500Z,101503.94
2018-10-16T20:36:05.489Z,101499.59
2018-10-16T20:38:41.509Z,101493.38
2018-10-16T20:41:17.408Z,101491.08
2018-10-16T20:43:53.473Z,101489.38
2018-10-16T20:46:29.498Z,101488.21
2018-10-16T20:49:06.375Z,101482.52
2018-10-16T20:51:42.839Z,101485.38
2018-10-16T20:54:19.124Z,101480.68
2018-10-16T20:56:55.390Z,101478.48
2018-10-16T20:59:31.626Z,101472.44
2018-10-16T21:02:07.687Z,101462.73
2018-10-16T21:04:43.821Z,101468.58
2018-10-16T21:07:19.765Z,101461.20
2018-10-16T21:09:55.870Z,101450.64
2018-10-16T21:12:32.198Z,101454.99
2018-10-16T21:15:09.262Z,101451.63
2018-10-16T21:17:45.874Z,101448.62
2018-10-16T21:20:22.141Z,101443.41
2018-10-16T21:22:57.950Z,101439.21
2018-10-16T21:25:34.155Z,101442.87
2018-10-16T21:28:11.277Z,101441.20
2018-10-16T21:30:47.692Z,101434.16
2018-10-16T21:33:23.517Z,101432.45
2018-10-16T21:35:59.700Z,101427.42
2018-10-16T21:38:35.893Z,101427.63
2018-10-16T21:41:11.845Z,101425.41
2018-10-16T21:43:48.497Z,101421.20
2018-10-16T21:46:24.456Z,101411.97
2018-10-16T21:49:00.509Z,101409.80
2018-10-16T21:51:36.773Z,101409.61
2018-10-16T21:54:12.853Z,101407.41
2018-10-16T21:56:48.916Z,101403.88
2018-10-16T21:59:25.683Z,101402.16
2018-10-16T22:02:05.808Z,101396.95
2018-10-16T22:04:43.003Z,101396.27
2018-10-16T22:07:19.004Z,101395.94
2018-10-16T22:09:54.954Z,101393.06
2018-10-16T22:12:31.001Z,101390.91
2018-10-16T22:15:07.253Z,101389.69
2018-10-16T22:17:43.076Z,101383.33
2018-10-16T22:20:19.065Z,101381.48
2018-10-16T22:22:55.937Z,101380.64
2018-10-16T22:25:32.440Z,101379.80
2018-10-16T22:28:08.860Z,101381.64
2018-10-16T22:30:45.252Z,101376.61
2018-10-16T22:33:21.379Z,101373.43
2018-10-16T22:35:57.270Z,101380.14
2018-10-16T22:38:33.384Z,101376.95
2018-10-16T22:41:09.896Z,101370.25
2018-10-16T22:43:46.863Z,101377.77
2018-10-16T22:46:23.031Z,101367.56
2018-10-16T22:48:59.301Z,101373.59
2018-10-16T22:51:35.271Z,101374.59
2018-10-16T22:54:11.247Z,101374.93
2018-10-16T22:56:48.056Z,101378.11
2018-10-16T22:59:24.088Z,101372.74
2018-10-16T23:02:00.525Z,101373.59
2018-10-16T23:04:36.540Z,101375.23
2018-10-16T23:07:12.928Z,101377.42
2018-10-16T23:09:49.399Z,101366.69
2018-10-16T23:12:25.181Z,101367.19
2018-10-16T23:15:01.429Z,101368.53
2018-10-16T23:17:37.540Z,101367.19
2018-10-16T23:20:14.894Z,101362.16
2018-10-16T23:22:51.079Z,101367.00
2018-10-16T23:25:27.261Z,101363.50
2018-10-16T23:28:03.432Z,101361.63
2018-10-16T23:30:39.864Z,101358.13
2018-10-16T23:33:16.273Z,101359.48
2018-10-16T23:35:52.449Z,101361.31
2018-10-16T23:38:28.457Z,101359.48
2018-10-16T23:41:04.722Z,101362.16
2018-10-16T23:43:39.278Z,101356.45
2018-10-16T23:46:15.502Z,101356.79
2018-10-16T23:48:51.887Z,101358.13
2018-10-16T23:51:28.263Z,101357.29
2018-10-16T23:54:04.304Z,101357.10
2018-10-16T23:56:40.907Z,101360.62
2018-10-16T23:59:16.906Z,101363.31
